createdAt,value
2022-12-25T00:00:28.448Z,993.73
2022-12-25T00:01:28.403Z,993.75
2022-12-25T00:02:28.516Z,993.70
2022-12-25T00:03:28.498Z,993.70
2022-12-25T00:04:28.401Z,993.81
2022-12-25T00:05:28.388Z,993.78
2022-12-25T00:06:28.390Z,993.75
2022-12-25T00:07:28.360Z,993.74
2022-12-25T00:08:28.358Z,993.76
2022-12-25T00:09:28.376Z,993.73
2022-12-25T00:10:28.337Z,993.73
2022-12-25T00:11:28.328Z,993.76
2022-12-25T00:12:28.326Z,993.75
2022-12-25T00:13:28.313Z,993.72
2022-12-25T00:14:28.332Z,993.74
2022-12-25T00:15:28.299Z,993.70
2022-12-25T00:16:28.413Z,993.74
2022-12-25T00:17:28.294Z,993.75
2022-12-25T00:18:28.280Z,993.82
2022-12-25T00:19:28.311Z,993.79
2022-12-25T00:20:28.260Z,993.79
2022-12-25T00:21:28.247Z,993.71
2022-12-25T00:22:28.244Z,993.70
2022-12-25T00:23:28.249Z,993.71
2022-12-25T00:24:28.252Z,993.69
2022-12-25T00:25:28.223Z,993.70
2022-12-25T00:26:28.213Z,993.66
2022-12-25T00:27:28.205Z,993.67
2022-12-25T00:28:28.196Z,993.69
2022-12-25T00:29:28.220Z,993.68
2022-12-25T00:30:28.183Z,993.59
2022-12-25T00:31:28.196Z,993.58
2022-12-25T00:32:28.171Z,993.54
2022-12-25T00:33:28.145Z,993.53
2022-12-25T00:34:29.174Z,993.63
2022-12-25T00:35:28.147Z,993.59
2022-12-25T00:36:28.133Z,993.64
2022-12-25T00:37:28.128Z,993.58
2022-12-25T00:38:28.111Z,993.65
2022-12-25T00:39:28.134Z,993.58
2022-12-25T00:40:28.098Z,993.61
2022-12-25T00:41:28.088Z,993.65
2022-12-25T00:42:28.085Z,993.68
2022-12-25T00:43:28.077Z,993.64
2022-12-25T00:44:28.091Z,993.65
2022-12-25T00:45:28.095Z,993.73
2022-12-25T00:46:28.102Z,993.74
2022-12-25T00:47:28.061Z,993.74
2022-12-25T00:48:28.033Z,993.72
2022-12-25T00:49:28.057Z,993.81
2022-12-25T00:50:28.017Z,993.80
2022-12-25T00:51:28.012Z,993.86
2022-12-25T00:52:28.010Z,993.94
2022-12-25T00:53:27.994Z,993.96
2022-12-25T00:54:28.011Z,993.97
2022-12-25T00:55:27.976Z,994.07
2022-12-25T00:56:27.972Z,994.01
2022-12-25T00:57:27.973Z,994.08
2022-12-25T00:58:27.958Z,994.08
2022-12-25T00:59:27.969Z,994.06
2022-12-25T01:00:27.941Z,994.14
2022-12-25T01:01:28.146Z,994.04
2022-12-25T01:02:28.055Z,994.06
2022-12-25T01:03:27.998Z,994.03
2022-12-25T01:04:27.945Z,994.05
2022-12-25T01:05:27.902Z,994.06
2022-12-25T01:06:27.898Z,994.11
2022-12-25T01:07:27.914Z,994.16
2022-12-25T01:08:27.890Z,994.21
2022-12-25T01:09:27.894Z,994.10
2022-12-25T01:10:28.875Z,994.17
2022-12-25T01:11:27.857Z,994.15
2022-12-25T01:12:27.863Z,994.15
2022-12-25T01:13:27.844Z,994.10
2022-12-25T01:14:27.862Z,994.02
2022-12-25T01:15:27.825Z,994.05
2022-12-25T01:16:27.991Z,994.03
2022-12-25T01:17:27.812Z,994.01
2022-12-25T01:18:27.800Z,993.99
2022-12-25T01:19:27.827Z,993.93
2022-12-25T01:20:27.801Z,993.98
2022-12-25T01:21:27.782Z,994.00
2022-12-25T01:22:27.785Z,993.98
2022-12-25T01:23:27.776Z,993.96
2022-12-25T01:24:27.792Z,993.99
2022-12-25T01:25:27.762Z,994.02
2022-12-25T01:26:27.748Z,994.01
2022-12-25T01:27:27.745Z,994.08
2022-12-25T01:28:27.730Z,994.05
2022-12-25T01:29:27.750Z,994.05
2022-12-25T01:30:27.719Z,994.04
2022-12-25T01:31:27.769Z,994.02
2022-12-25T01:32:27.725Z,993.97
2022-12-25T01:33:27.697Z,994.04
2022-12-25T01:34:27.720Z,994.04
2022-12-25T01:35:27.679Z,994.08
2022-12-25T01:36:27.674Z,994.10
2022-12-25T01:37:27.668Z,994.08
2022-12-25T01:38:27.653Z,994.02
2022-12-25T01:39:27.706Z,993.98
2022-12-25T01:40:27.646Z,994.08
2022-12-25T01:41:27.635Z,994.01
2022-12-25T01:42:27.628Z,994.04
2022-12-25T01:43:27.636Z,994.07
2022-12-25T01:44:28.513Z,994.08
2022-12-25T01:45:27.666Z,994.09
2022-12-25T01:46:27.593Z,993.99
2022-12-25T01:47:27.585Z,994.09
2022-12-25T01:48:27.577Z,994.04
2022-12-25T01:49:27.603Z,994.07
2022-12-25T01:50:27.561Z,994.13
2022-12-25T01:51:27.556Z,994.09
2022-12-25T01:52:27.533Z,994.16
2022-12-25T01:53:27.536Z,994.14
2022-12-25T01:54:27.536Z,994.14
2022-12-25T01:55:27.556Z,994.09
2022-12-25T01:56:27.512Z,994.08
2022-12-25T01:57:27.522Z,994.05
2022-12-25T01:58:27.496Z,994.10
2022-12-25T01:59:27.487Z,994.09
2022-12-25T02:00:27.512Z,994.12
2022-12-25T02:01:27.736Z,994.04
2022-12-25T02:02:27.563Z,994.11
2022-12-25T02:03:27.569Z,994.14
2022-12-25T02:04:27.441Z,994.12
2022-12-25T02:05:27.480Z,994.15
2022-12-25T02:06:27.432Z,994.23
2022-12-25T02:07:27.432Z,994.16
2022-12-25T02:08:27.410Z,994.19
2022-12-25T02:09:27.407Z,994.14
2022-12-25T02:10:27.418Z,994.23
2022-12-25T02:11:27.387Z,994.12
2022-12-25T02:12:27.380Z,994.06
2022-12-25T02:13:27.372Z,994.14
2022-12-25T02:14:27.366Z,994.11
2022-12-25T02:15:27.379Z,994.15
2022-12-25T02:16:27.369Z,994.17
2022-12-25T02:17:27.376Z,994.13
2022-12-25T02:18:27.328Z,994.19
2022-12-25T02:19:27.321Z,994.13
2022-12-25T02:20:27.341Z,994.16
2022-12-25T02:21:27.302Z,994.14
2022-12-25T02:22:27.304Z,994.14
2022-12-25T02:23:27.296Z,994.05
2022-12-25T02:24:27.309Z,994.07
2022-12-25T02:25:27.296Z,994.01
2022-12-25T02:26:27.263Z,994.06
2022-12-25T02:27:27.265Z,994.03
2022-12-25T02:28:27.264Z,994.04
2022-12-25T02:29:27.239Z,994.00
2022-12-25T02:30:27.253Z,993.97
2022-12-25T02:31:27.249Z,994.04
2022-12-25T02:32:27.212Z,994.04
2022-12-25T02:33:27.208Z,994.03
2022-12-25T02:34:27.204Z,994.00
2022-12-25T02:35:27.223Z,993.93
2022-12-25T02:36:27.195Z,993.90
2022-12-25T02:37:27.186Z,993.93
2022-12-25T02:38:27.171Z,993.89
2022-12-25T02:39:27.162Z,993.91
2022-12-25T02:40:27.183Z,993.90
2022-12-25T02:41:27.149Z,993.90
2022-12-25T02:42:27.144Z,993.90
2022-12-25T02:43:27.151Z,993.86
2022-12-25T02:44:27.137Z,993.91
2022-12-25T02:45:27.155Z,993.91
2022-12-25T02:46:27.122Z,993.95
2022-12-25T02:47:27.100Z,993.90
2022-12-25T02:48:27.094Z,993.91
2022-12-25T02:49:27.088Z,993.85
2022-12-25T02:50:27.108Z,993.86
2022-12-25T02:51:27.071Z,993.84
2022-12-25T02:52:27.067Z,993.80
2022-12-25T02:53:27.055Z,993.86
2022-12-25T02:54:27.043Z,993.81
2022-12-25T02:55:27.070Z,993.79
2022-12-25T02:56:27.035Z,993.87
2022-12-25T02:57:27.019Z,993.82
2022-12-25T02:58:27.012Z,993.84
2022-12-25T02:59:27.018Z,993.87
2022-12-25T03:00:26.999Z,993.86
2022-12-25T03:01:27.178Z,993.84
2022-12-25T03:02:27.017Z,993.79
2022-12-25T03:03:27.006Z,993.88
2022-12-25T03:04:26.967Z,993.85
2022-12-25T03:05:26.961Z,993.81
2022-12-25T03:06:26.989Z,993.81
2022-12-25T03:07:26.947Z,993.69
2022-12-25T03:08:26.942Z,993.72
2022-12-25T03:09:26.936Z,993.81
2022-12-25T03:10:26.932Z,993.73
2022-12-25T03:11:26.944Z,993.79
2022-12-25T03:12:26.909Z,993.80
2022-12-25T03:13:26.909Z,993.85
2022-12-25T03:14:26.903Z,993.84
2022-12-25T03:15:26.902Z,993.78
2022-12-25T03:16:26.917Z,993.89
2022-12-25T03:17:26.883Z,993.95
2022-12-25T03:18:26.874Z,993.99
2022-12-25T03:19:26.856Z,993.97
2022-12-25T03:20:26.857Z,994.01
2022-12-25T03:21:26.879Z,993.92
2022-12-25T03:22:26.835Z,993.83
2022-12-25T03:23:26.832Z,993.84
2022-12-25T03:24:26.828Z,993.85
2022-12-25T03:25:26.816Z,993.83
2022-12-25T03:26:26.833Z,993.93
2022-12-25T03:27:26.818Z,993.90
2022-12-25T03:28:26.797Z,993.94
2022-12-25T03:29:31.702Z,993.98
2022-12-25T03:30:28.809Z,993.92
2022-12-25T03:31:26.822Z,993.96
2022-12-25T03:32:26.776Z,993.98
2022-12-25T03:33:44.736Z,993.91
2022-12-25T03:34:28.750Z,993.88
2022-12-25T03:35:26.742Z,993.93
2022-12-25T03:36:26.728Z,993.88
2022-12-25T03:37:26.741Z,993.97
2022-12-25T03:38:26.713Z,993.88
2022-12-25T03:39:26.709Z,993.91
2022-12-25T03:40:26.734Z,993.89
2022-12-25T03:41:26.691Z,993.87
2022-12-25T03:42:26.707Z,993.93
2022-12-25T03:43:26.684Z,993.89
2022-12-25T03:44:26.664Z,993.91
2022-12-25T03:45:26.665Z,993.90
2022-12-25T03:46:26.743Z,993.92
2022-12-25T03:47:26.681Z,993.89
2022-12-25T03:48:26.634Z,993.89
2022-12-25T03:49:26.634Z,993.88
2022-12-25T03:50:26.639Z,993.93
2022-12-25T03:51:26.621Z,993.92
2022-12-25T03:52:26.643Z,993.92
2022-12-25T03:53:26.601Z,993.93
2022-12-25T03:54:26.595Z,993.84
2022-12-25T03:55:26.585Z,993.79
2022-12-25T03:56:26.586Z,993.74
2022-12-25T03:57:26.602Z,993.79
2022-12-25T03:58:26.564Z,993.75
2022-12-25T03:59:26.555Z,993.85
2022-12-25T04:00:26.553Z,993.80
2022-12-25T04:01:26.710Z,993.82
2022-12-25T04:02:26.684Z,993.78
2022-12-25T04:03:26.616Z,993.77
2022-12-25T04:04:26.520Z,993.85
2022-12-25T04:05:26.519Z,993.83
2022-12-25T04:06:26.519Z,993.81
2022-12-25T04:07:26.512Z,993.82
2022-12-25T04:08:26.518Z,993.90
2022-12-25T04:09:26.481Z,993.96
2022-12-25T04:10:26.476Z,993.89
2022-12-25T04:11:26.474Z,993.94
2022-12-25T04:12:26.458Z,993.98
2022-12-25T04:13:26.489Z,993.94
2022-12-25T04:14:26.443Z,993.82
2022-12-25T04:15:26.482Z,993.91
2022-12-25T04:16:26.501Z,993.90
2022-12-25T04:17:26.417Z,993.86
2022-12-25T04:18:26.443Z,993.90
2022-12-25T04:19:26.409Z,993.91
2022-12-25T04:20:26.404Z,993.89
2022-12-25T04:21:26.393Z,993.85
2022-12-25T04:22:26.390Z,993.86
2022-12-25T04:23:26.411Z,993.84
2022-12-25T04:24:26.382Z,993.81
2022-12-25T04:25:26.363Z,993.78
2022-12-25T04:26:26.359Z,993.79
2022-12-25T04:27:26.350Z,993.80
2022-12-25T04:28:26.359Z,993.78
2022-12-25T04:29:26.334Z,993.82
2022-12-25T04:30:26.321Z,993.82
2022-12-25T04:31:26.422Z,993.82
2022-12-25T04:32:26.309Z,993.81
2022-12-25T04:33:26.347Z,993.73
2022-12-25T04:34:26.310Z,993.69
2022-12-25T04:35:26.333Z,993.68
2022-12-25T04:36:26.279Z,993.65
2022-12-25T04:37:26.269Z,993.60
2022-12-25T04:38:26.293Z,993.65
2022-12-25T04:39:26.250Z,993.61
2022-12-25T04:40:26.247Z,993.64
2022-12-25T04:41:26.230Z,993.57
2022-12-25T04:42:27.245Z,993.62
2022-12-25T04:43:26.230Z,993.59
2022-12-25T04:44:26.247Z,993.56
2022-12-25T04:45:26.205Z,993.61
2022-12-25T04:46:26.257Z,993.68
2022-12-25T04:47:26.189Z,993.53
2022-12-25T04:48:26.184Z,993.49
2022-12-25T04:49:27.197Z,993.51
2022-12-25T04:50:26.167Z,993.52
2022-12-25T04:51:26.167Z,993.39
2022-12-25T04:52:26.159Z,993.40
2022-12-25T04:53:26.143Z,993.38
2022-12-25T04:54:26.166Z,993.44
2022-12-25T04:55:26.139Z,993.40
2022-12-25T04:56:26.130Z,993.42
2022-12-25T04:57:26.115Z,993.45
2022-12-25T04:58:26.109Z,993.47
2022-12-25T04:59:26.118Z,993.42
2022-12-25T05:00:26.082Z,993.43
2022-12-25T05:01:26.158Z,993.43
2022-12-25T05:02:26.269Z,993.39
2022-12-25T05:03:26.094Z,993.30
2022-12-25T05:04:26.081Z,993.31
2022-12-25T05:05:26.049Z,993.37
2022-12-25T05:06:26.047Z,993.28
2022-12-25T05:07:26.039Z,993.34
2022-12-25T05:08:26.028Z,993.33
2022-12-25T05:09:26.066Z,993.27
2022-12-25T05:10:26.011Z,993.34
2022-12-25T05:11:26.008Z,993.30
2022-12-25T05:12:25.993Z,993.29
2022-12-25T05:13:25.988Z,993.34
2022-12-25T05:14:26.006Z,993.34
2022-12-25T05:15:25.977Z,993.36
2022-12-25T05:16:25.997Z,993.43
2022-12-25T05:17:25.961Z,993.43
2022-12-25T05:18:25.969Z,993.43
2022-12-25T05:19:26.961Z,993.41
2022-12-25T05:20:25.933Z,993.36
2022-12-25T05:21:25.934Z,993.37
2022-12-25T05:22:25.904Z,993.37
2022-12-25T05:23:26.907Z,993.34
2022-12-25T05:24:25.921Z,993.38
2022-12-25T05:25:25.886Z,993.39
2022-12-25T05:26:25.881Z,993.37
2022-12-25T05:27:25.879Z,993.33
2022-12-25T05:28:25.860Z,993.28
2022-12-25T05:29:25.884Z,993.30
2022-12-25T05:30:25.845Z,993.32
2022-12-25T05:31:25.885Z,993.32
2022-12-25T05:32:26.837Z,993.36
2022-12-25T05:33:25.825Z,993.47
2022-12-25T05:34:25.853Z,993.47
2022-12-25T05:35:25.811Z,993.51
2022-12-25T05:36:25.803Z,993.39
2022-12-25T05:37:25.799Z,993.40
2022-12-25T05:38:25.784Z,993.45
2022-12-25T05:39:25.806Z,993.54
2022-12-25T05:40:25.773Z,993.51
2022-12-25T05:41:29.111Z,993.51
2022-12-25T05:42:27.757Z,993.54
2022-12-25T05:43:25.758Z,993.57
2022-12-25T05:44:25.770Z,993.53
2022-12-25T05:45:25.734Z,993.52
2022-12-25T05:46:25.781Z,993.53
2022-12-25T05:47:25.733Z,993.52
2022-12-25T05:48:25.712Z,993.52
2022-12-25T05:49:25.726Z,993.51
2022-12-25T05:50:25.694Z,993.45
2022-12-25T05:51:25.685Z,993.45
2022-12-25T05:52:25.688Z,993.49
2022-12-25T05:53:25.673Z,993.53
2022-12-25T05:54:25.659Z,993.53
2022-12-25T05:55:25.677Z,993.52
2022-12-25T05:56:25.674Z,993.49
2022-12-25T05:57:25.645Z,993.48
2022-12-25T05:58:25.637Z,993.44
2022-12-25T05:59:25.622Z,993.45
2022-12-25T06:00:25.646Z,993.42
2022-12-25T06:01:25.662Z,993.47
2022-12-25T06:02:25.877Z,993.45
2022-12-25T06:03:25.684Z,993.49
2022-12-25T06:04:25.584Z,993.52
2022-12-25T06:05:26.611Z,993.53
2022-12-25T06:06:25.583Z,993.53
2022-12-25T06:07:25.565Z,993.53
2022-12-25T06:08:25.555Z,993.50
2022-12-25T06:09:25.552Z,993.50
2022-12-25T06:10:25.568Z,993.50
2022-12-25T06:11:25.540Z,993.54
2022-12-25T06:12:25.537Z,993.55
2022-12-25T06:13:25.525Z,993.45
2022-12-25T06:14:25.510Z,993.49
2022-12-25T06:15:25.526Z,993.50
2022-12-25T06:16:25.549Z,993.52
2022-12-25T06:17:25.482Z,993.50
2022-12-25T06:18:25.477Z,993.49
2022-12-25T06:19:25.466Z,993.48
2022-12-25T06:20:25.503Z,993.44
2022-12-25T06:21:25.449Z,993.46
2022-12-25T06:22:25.451Z,993.44
2022-12-25T06:23:25.498Z,993.54
2022-12-25T06:24:25.439Z,993.51
2022-12-25T06:25:25.426Z,993.45
2022-12-25T06:26:25.441Z,993.49
2022-12-25T06:27:25.414Z,993.48
2022-12-25T06:28:25.395Z,993.45
2022-12-25T06:29:25.394Z,993.51
2022-12-25T06:30:25.387Z,993.50
2022-12-25T06:31:25.441Z,993.48
2022-12-25T06:32:25.368Z,993.50
2022-12-25T06:33:25.378Z,993.37
2022-12-25T06:34:25.354Z,993.44
2022-12-25T06:35:25.344Z,993.44
2022-12-25T06:36:25.362Z,993.34
2022-12-25T06:37:25.326Z,993.36
2022-12-25T06:38:25.318Z,993.32
2022-12-25T06:39:26.308Z,993.29
2022-12-25T06:40:25.307Z,993.36
2022-12-25T06:41:25.359Z,993.28
2022-12-25T06:42:25.303Z,993.32
2022-12-25T06:43:25.277Z,993.20
2022-12-25T06:44:25.270Z,993.31
2022-12-25T06:45:25.303Z,993.31
2022-12-25T06:46:25.384Z,993.35
2022-12-25T06:47:25.248Z,993.25
2022-12-25T06:48:25.244Z,993.26
2022-12-25T06:49:25.235Z,993.26
2022-12-25T06:50:25.218Z,993.24
2022-12-25T06:51:25.258Z,993.29
2022-12-25T06:52:25.215Z,993.25
2022-12-25T06:53:25.204Z,993.32
2022-12-25T06:54:25.196Z,993.25
2022-12-25T06:55:25.188Z,993.20
2022-12-25T06:56:25.206Z,993.22
2022-12-25T06:57:25.177Z,993.29
2022-12-25T06:58:25.161Z,993.29
2022-12-25T06:59:25.162Z,993.29
2022-12-25T07:00:25.150Z,993.31
2022-12-25T07:01:25.263Z,993.34
2022-12-25T07:02:25.348Z,993.32
2022-12-25T07:03:25.207Z,993.31
2022-12-25T07:04:25.121Z,993.29
2022-12-25T07:05:25.123Z,993.32
2022-12-25T07:06:25.134Z,993.38
2022-12-25T07:07:25.097Z,993.37
2022-12-25T07:08:25.085Z,993.36
2022-12-25T07:09:25.107Z,993.38
2022-12-25T07:10:25.079Z,993.38
2022-12-25T07:11:25.073Z,993.41
2022-12-25T07:12:25.086Z,993.39
2022-12-25T07:13:26.248Z,993.32
2022-12-25T07:14:26.034Z,993.22
2022-12-25T07:15:25.032Z,993.25
2022-12-25T07:16:25.069Z,993.23
2022-12-25T07:17:25.048Z,993.19
2022-12-25T07:18:25.010Z,993.16
2022-12-25T07:19:24.997Z,993.11
2022-12-25T07:20:24.989Z,993.17
2022-12-25T07:21:25.014Z,993.14
2022-12-25T07:22:25.003Z,993.17
2022-12-25T07:23:24.966Z,993.24
2022-12-25T07:24:24.958Z,993.19
2022-12-25T07:25:24.952Z,993.17
2022-12-25T07:26:24.949Z,993.26
2022-12-25T07:27:24.967Z,993.21
2022-12-25T07:28:24.935Z,993.23
2022-12-25T07:29:24.917Z,993.18
2022-12-25T07:30:24.912Z,993.21
2022-12-25T07:31:24.918Z,993.24
2022-12-25T07:32:24.917Z,993.26
2022-12-25T07:33:24.894Z,993.23
2022-12-25T07:34:24.883Z,993.23
2022-12-25T07:35:24.865Z,993.24
2022-12-25T07:36:24.956Z,993.19
2022-12-25T07:37:24.888Z,993.16
2022-12-25T07:38:24.844Z,993.23
2022-12-25T07:39:24.848Z,993.26
2022-12-25T07:40:24.836Z,993.25
2022-12-25T07:41:25.400Z,993.37
2022-12-25T07:42:25.497Z,993.27
2022-12-25T07:43:25.813Z,993.31
2022-12-25T07:44:24.798Z,993.35
2022-12-25T07:45:24.790Z,993.35
2022-12-25T07:46:24.916Z,993.33
2022-12-25T07:47:24.805Z,993.42
2022-12-25T07:48:24.764Z,993.39
2022-12-25T07:49:24.753Z,993.45
2022-12-25T07:50:24.748Z,993.35
2022-12-25T07:51:24.741Z,993.40
2022-12-25T07:52:24.757Z,993.31
2022-12-25T07:53:24.737Z,993.23
2022-12-25T07:54:24.736Z,993.25
2022-12-25T07:55:24.711Z,993.21
2022-12-25T07:56:24.700Z,993.19
2022-12-25T07:57:24.723Z,993.11
2022-12-25T07:58:24.683Z,993.10
2022-12-25T07:59:24.677Z,993.07
2022-12-25T08:00:24.665Z,993.07
2022-12-25T08:01:24.833Z,993.05
2022-12-25T08:02:25.037Z,993.13
2022-12-25T08:03:24.878Z,993.10
2022-12-25T08:04:24.641Z,993.03
2022-12-25T08:05:24.635Z,993.05
2022-12-25T08:06:24.641Z,993.02
2022-12-25T08:07:24.643Z,993.03
2022-12-25T08:08:24.613Z,993.01
2022-12-25T08:09:24.608Z,993.01
2022-12-25T08:10:24.590Z,992.97
2022-12-25T08:11:24.588Z,992.97
2022-12-25T08:12:24.615Z,992.83
2022-12-25T08:13:24.574Z,992.74
2022-12-25T08:14:24.570Z,992.78
2022-12-25T08:15:24.555Z,992.72
2022-12-25T08:16:24.571Z,992.68
2022-12-25T08:17:24.536Z,992.55
2022-12-25T08:18:29.498Z,992.62
2022-12-25T08:19:26.520Z,992.51
2022-12-25T08:20:24.510Z,992.55
2022-12-25T08:21:25.512Z,992.64
2022-12-25T08:22:24.499Z,992.61
2022-12-25T08:23:24.520Z,992.63
2022-12-25T08:24:24.485Z,992.58
2022-12-25T08:25:24.478Z,992.61
2022-12-25T08:26:24.466Z,992.59
2022-12-25T08:27:24.453Z,992.69
2022-12-25T08:28:25.485Z,992.68
2022-12-25T08:29:24.445Z,992.71
2022-12-25T08:30:24.435Z,992.73
2022-12-25T08:31:24.495Z,992.71
2022-12-25T08:32:24.436Z,992.77
2022-12-25T08:33:24.443Z,992.81
2022-12-25T08:34:24.401Z,992.86
2022-12-25T08:35:24.399Z,992.82
2022-12-25T08:36:24.401Z,992.81
2022-12-25T08:37:24.386Z,992.86
2022-12-25T08:38:24.398Z,992.78
2022-12-25T08:39:24.403Z,992.88
2022-12-25T08:40:24.355Z,992.80
2022-12-25T08:41:24.348Z,992.85
2022-12-25T08:42:24.343Z,992.94
2022-12-25T08:43:24.331Z,992.88
2022-12-25T08:44:24.350Z,992.92
2022-12-25T08:45:27.331Z,992.96
2022-12-25T08:46:25.397Z,992.90
2022-12-25T08:47:24.304Z,992.93
2022-12-25T08:48:24.322Z,992.90
2022-12-25T08:49:24.291Z,993.00
2022-12-25T08:50:24.360Z,993.04
2022-12-25T08:51:24.298Z,993.06
2022-12-25T08:52:24.265Z,993.02
2022-12-25T08:53:24.257Z,993.07
2022-12-25T08:54:24.274Z,993.04
2022-12-25T08:55:24.237Z,993.04
2022-12-25T08:56:24.245Z,992.96
2022-12-25T08:57:24.226Z,992.95
2022-12-25T08:58:24.219Z,992.96
2022-12-25T08:59:24.238Z,992.90
2022-12-25T09:00:24.199Z,992.95
2022-12-25T09:01:24.358Z,992.92
2022-12-25T09:02:24.369Z,992.90
2022-12-25T09:03:24.315Z,992.92
2022-12-25T09:04:24.202Z,992.91
2022-12-25T09:05:24.168Z,992.90
2022-12-25T09:06:24.156Z,992.85
2022-12-25T09:07:24.149Z,992.85
2022-12-25T09:08:24.149Z,992.79
2022-12-25T09:09:24.163Z,992.79
2022-12-25T09:10:24.129Z,992.68
2022-12-25T09:11:24.142Z,992.58
2022-12-25T09:12:24.119Z,992.52
2022-12-25T09:13:24.117Z,992.57
2022-12-25T09:14:24.121Z,992.45
2022-12-25T09:15:24.089Z,992.53
2022-12-25T09:16:24.180Z,992.42
2022-12-25T09:17:24.073Z,992.46
2022-12-25T09:18:24.065Z,992.38
2022-12-25T09:19:24.091Z,992.39
2022-12-25T09:20:24.077Z,992.44
2022-12-25T09:21:24.045Z,992.53
2022-12-25T09:22:24.037Z,992.52
2022-12-25T09:23:24.030Z,992.58
2022-12-25T09:24:24.049Z,992.53
2022-12-25T09:25:24.039Z,992.54
2022-12-25T09:26:24.005Z,992.53
2022-12-25T09:27:23.996Z,992.45
2022-12-25T09:28:23.987Z,992.37
2022-12-25T09:29:24.002Z,992.29
2022-12-25T09:30:23.960Z,992.16
2022-12-25T09:31:24.999Z,992.18
2022-12-25T09:32:23.956Z,992.32
2022-12-25T09:33:23.942Z,992.31
2022-12-25T09:34:23.978Z,992.37
2022-12-25T09:35:23.930Z,992.42
2022-12-25T09:36:23.951Z,992.39
2022-12-25T09:37:23.918Z,992.43
2022-12-25T09:38:23.904Z,992.38
2022-12-25T09:39:23.926Z,992.28
2022-12-25T09:40:23.889Z,992.29
2022-12-25T09:41:23.883Z,992.25
2022-12-25T09:42:23.880Z,992.29
2022-12-25T09:43:23.870Z,992.33
2022-12-25T09:44:23.895Z,992.43
2022-12-25T09:45:23.855Z,992.39
2022-12-25T09:46:23.982Z,992.39
2022-12-25T09:47:23.836Z,992.41
2022-12-25T09:48:23.832Z,992.45
2022-12-25T09:49:23.847Z,992.43
2022-12-25T09:50:23.817Z,992.43
2022-12-25T09:51:23.813Z,992.38
2022-12-25T09:52:23.797Z,992.46
2022-12-25T09:53:23.801Z,992.45
2022-12-25T09:54:23.805Z,992.42
2022-12-25T09:55:23.769Z,992.44
2022-12-25T09:56:23.768Z,992.42
2022-12-25T09:57:23.755Z,992.42
2022-12-25T09:58:23.747Z,992.44
2022-12-25T09:59:23.754Z,992.39
2022-12-25T10:00:24.739Z,992.34
2022-12-25T10:01:23.786Z,992.36
2022-12-25T10:02:23.934Z,992.27
2022-12-25T10:03:23.783Z,992.31
2022-12-25T10:04:23.741Z,992.29
2022-12-25T10:05:23.691Z,992.18
2022-12-25T10:06:23.681Z,992.21
2022-12-25T10:07:23.685Z,992.20
2022-12-25T10:08:23.668Z,992.12
2022-12-25T10:09:23.709Z,992.13
2022-12-25T10:10:23.650Z,992.04
2022-12-25T10:11:23.640Z,991.98
2022-12-25T10:12:23.648Z,992.05
2022-12-25T10:13:23.639Z,991.98
2022-12-25T10:14:23.764Z,991.99
2022-12-25T10:15:23.632Z,992.08
2022-12-25T10:16:23.673Z,991.99
2022-12-25T10:17:23.609Z,991.98
2022-12-25T10:18:23.589Z,991.91
2022-12-25T10:19:23.621Z,991.85
2022-12-25T10:20:23.566Z,991.85
2022-12-25T10:21:23.568Z,991.78
2022-12-25T10:22:23.556Z,991.75
2022-12-25T10:23:23.554Z,991.85
2022-12-25T10:24:23.543Z,991.79
2022-12-25T10:25:23.554Z,991.79
2022-12-25T10:26:23.541Z,991.83
2022-12-25T10:27:23.520Z,991.83
2022-12-25T10:28:23.521Z,991.81
2022-12-25T10:29:23.506Z,991.87
2022-12-25T10:30:23.518Z,991.86
2022-12-25T10:31:23.556Z,991.92
2022-12-25T10:32:23.479Z,991.98
2022-12-25T10:33:23.474Z,991.98
2022-12-25T10:34:23.473Z,991.97
2022-12-25T10:35:23.480Z,991.98
2022-12-25T10:36:23.442Z,991.96
2022-12-25T10:37:23.443Z,991.94
2022-12-25T10:38:23.443Z,991.96
2022-12-25T10:39:23.418Z,991.90
2022-12-25T10:40:23.451Z,992.05
2022-12-25T10:41:23.442Z,992.05
2022-12-25T10:42:23.406Z,992.15
2022-12-25T10:43:23.391Z,992.14
2022-12-25T10:44:23.390Z,992.06
2022-12-25T10:45:24.417Z,992.03
2022-12-25T10:46:23.429Z,992.01
2022-12-25T10:47:23.358Z,991.95
2022-12-25T10:48:23.359Z,991.94
2022-12-25T10:49:23.352Z,991.96
2022-12-25T10:50:23.360Z,991.92
2022-12-25T10:51:23.331Z,991.95
2022-12-25T10:52:23.323Z,991.95
2022-12-25T10:53:23.311Z,991.92
2022-12-25T10:54:23.332Z,991.94
2022-12-25T10:55:28.424Z,991.93
2022-12-25T10:56:25.343Z,991.92
2022-12-25T10:57:23.281Z,991.78
2022-12-25T10:58:23.289Z,991.79
2022-12-25T10:59:23.270Z,991.82
2022-12-25T11:00:23.308Z,991.75
2022-12-25T11:01:23.402Z,991.73
2022-12-25T11:02:23.425Z,991.78
2022-12-25T11:03:23.410Z,991.67
2022-12-25T11:04:23.230Z,991.66
2022-12-25T11:05:23.248Z,991.66
2022-12-25T11:06:23.216Z,991.59
2022-12-25T11:07:23.211Z,991.54
2022-12-25T11:08:23.194Z,991.56
2022-12-25T11:09:23.189Z,991.59
2022-12-25T11:10:23.181Z,991.45
2022-12-25T11:11:23.202Z,991.41
2022-12-25T11:12:23.176Z,991.38
2022-12-25T11:13:23.166Z,991.34
2022-12-25T11:14:23.169Z,991.40
2022-12-25T11:15:23.153Z,991.34
2022-12-25T11:16:23.294Z,991.32
2022-12-25T11:17:23.134Z,991.31
2022-12-25T11:18:23.146Z,991.27
2022-12-25T11:19:23.109Z,991.28
2022-12-25T11:20:23.101Z,991.32
2022-12-25T11:21:23.125Z,991.29
2022-12-25T11:22:23.083Z,991.30
2022-12-25T11:23:23.083Z,991.20
2022-12-25T11:24:23.074Z,991.17
2022-12-25T11:25:23.064Z,991.10
2022-12-25T11:26:23.086Z,991.10
2022-12-25T11:27:23.047Z,991.11
2022-12-25T11:28:23.040Z,991.12
2022-12-25T11:29:23.038Z,991.08
2022-12-25T11:30:23.031Z,991.09
2022-12-25T11:31:23.141Z,991.01
2022-12-25T11:32:23.012Z,991.01
2022-12-25T11:33:23.995Z,991.06
2022-12-25T11:34:22.989Z,991.07
2022-12-25T11:35:22.992Z,991.12
2022-12-25T11:36:22.995Z,991.12
2022-12-25T11:37:22.961Z,991.08
2022-12-25T11:38:22.956Z,991.12
2022-12-25T11:39:22.947Z,991.15
2022-12-25T11:40:22.948Z,991.13
2022-12-25T11:41:22.960Z,991.10
2022-12-25T11:42:22.925Z,991.09
2022-12-25T11:43:22.927Z,990.99
2022-12-25T11:44:22.907Z,991.01
2022-12-25T11:45:22.903Z,990.95
2022-12-25T11:46:22.948Z,990.96
2022-12-25T11:47:22.883Z,990.94
2022-12-25T11:48:22.876Z,991.02
2022-12-25T11:49:22.883Z,991.01
2022-12-25T11:50:22.860Z,990.90
2022-12-25T11:51:22.887Z,990.87
2022-12-25T11:52:22.865Z,990.86
2022-12-25T11:53:22.834Z,990.85
2022-12-25T11:54:22.831Z,990.82
2022-12-25T11:55:22.814Z,990.87
2022-12-25T11:56:22.859Z,990.97
2022-12-25T11:57:22.805Z,990.91
2022-12-25T11:58:22.793Z,990.89
2022-12-25T11:59:22.790Z,990.96
2022-12-25T12:00:22.787Z,990.93
2022-12-25T12:01:22.862Z,990.88
2022-12-25T12:02:22.894Z,990.91
2022-12-25T12:03:22.908Z,990.96
2022-12-25T12:04:29.065Z,990.89
2022-12-25T12:05:24.742Z,990.86
2022-12-25T12:06:22.733Z,990.83
2022-12-25T12:07:22.791Z,990.87
2022-12-25T12:08:22.714Z,990.76
2022-12-25T12:09:22.721Z,990.71
2022-12-25T12:10:22.700Z,990.70
2022-12-25T12:11:22.697Z,990.71
2022-12-25T12:12:22.713Z,990.70
2022-12-25T12:13:22.677Z,990.69
2022-12-25T12:14:22.673Z,990.63
2022-12-25T12:15:22.664Z,990.68
2022-12-25T12:16:22.669Z,990.77
2022-12-25T12:17:22.672Z,990.77
2022-12-25T12:18:22.636Z,990.81
2022-12-25T12:19:22.650Z,990.76
2022-12-25T12:20:22.623Z,990.79
2022-12-25T12:21:22.619Z,990.83
2022-12-25T12:22:22.637Z,990.76
2022-12-25T12:23:22.599Z,990.77
2022-12-25T12:24:22.596Z,990.74
2022-12-25T12:25:22.586Z,990.76
2022-12-25T12:26:22.583Z,990.73
2022-12-25T12:27:22.595Z,990.74
2022-12-25T12:28:22.566Z,990.70